Fort Patrick Henry Observed Data For Previous 48 Hours

Caption
Day and Hour Reservoir Elevation (behind dam)* Tailwater Elevation (below dam)* Average Hourly Discharge*
9/20/2018 2 AM EDT 1,259.91 1,193.05 3,592
9/20/2018 3 AM EDT 1,259.89 1,193.01 3,652
9/20/2018 4 AM EDT 1,259.84 1,193.05 3,692
9/20/2018 5 AM EDT 1,259.77 1,193.07 3,792
9/20/2018 6 AM EDT 1,259.70 1,193.05 4,067
9/20/2018 7 AM EDT 1,259.66 1,193.04 4,081
9/20/2018 8 AM EDT 1,259.60 1,192.82 4,000
9/20/2018 9 AM EDT 1,259.47 1,193.42 4,102
9/20/2018 10 AM EDT 1,259.39 1,193.39 4,112
9/20/2018 11 AM EDT 1,259.37 1,193.40 4,120
9/20/2018 12 PM EDT 1,259.32 1,193.41 4,108
9/20/2018 1 PM EDT 1,259.29 1,193.40 4,116
9/20/2018 2 PM EDT 1,259.20 1,193.41 4,125
9/20/2018 3 PM EDT 1,259.53 1,193.41 4,103
9/20/2018 4 PM EDT 1,259.87 1,193.43 4,132
9/20/2018 5 PM EDT 1,260.23 1,193.41 4,146
9/20/2018 6 PM EDT 1,260.58 1,193.44 4,127
9/20/2018 7 PM EDT 1,260.95 1,193.44 4,139
9/20/2018 8 PM EDT 1,260.92 1,193.44 4,162
9/20/2018 9 PM EDT 1,260.90 1,193.43 4,152
9/20/2018 10 PM EDT 1,260.81 1,193.41 4,149
9/20/2018 11 PM EDT 1,260.72 1,193.44 4,130
9/21/2018 12 AM EDT 1,260.63 1,193.44 4,146
9/21/2018 1 AM EDT 1,260.56 1,193.42 4,128
9/21/2018 2 AM EDT 1,260.47 1,193.43 4,127
9/21/2018 3 AM EDT 1,260.41 1,193.38 4,086
9/21/2018 4 AM EDT 1,260.04 1,192.74 3,428
9/21/2018 5 AM EDT 1,259.71 1,192.73 3,407
9/21/2018 6 AM EDT 1,259.44 1,192.71 3,418
9/21/2018 7 AM EDT 1,259.10 1,193.23 3,529
9/21/2018 8 AM EDT 1,259.04 1,193.30 4,036
9/21/2018 9 AM EDT 1,258.95 1,193.33 4,028
9/21/2018 10 AM EDT 1,258.89 1,193.31 4,045
9/21/2018 11 AM EDT 1,258.78 1,193.33 4,020
9/21/2018 12 PM EDT 1,258.77 1,193.38 4,039
9/21/2018 1 PM EDT 1,258.67 1,193.40 4,147
9/21/2018 2 PM EDT 1,259.05 1,193.43 4,148
9/21/2018 3 PM EDT 1,259.43 1,193.43 4,151
9/21/2018 4 PM EDT 1,259.80 1,193.43 4,162
9/21/2018 5 PM EDT 1,260.16 1,193.42 4,189
9/21/2018 6 PM EDT 1,260.52 1,193.43 4,173
9/21/2018 7 PM EDT 1,260.88 1,193.43 4,176
9/21/2018 8 PM EDT 1,260.78 1,193.43 4,199
9/21/2018 9 PM EDT 1,260.72 1,193.43 4,190
9/21/2018 10 PM EDT 1,260.68 1,193.43 4,186
9/21/2018 11 PM EDT 1,260.65 1,193.43 4,199
9/22/2018 12 AM EDT 1,260.57 1,193.43 4,190
9/22/2018 1 AM EDT 1,260.45 1,193.42 4,173
9/22/2018 2 AM EDT 1,260.72 1,186.95 114
9/22/2018 3 AM EDT 1,260.93 1,186.95 314
9/22/2018 4 AM EDT 1,260.78 1,186.37 2,544

Elevations are in feet above sea level. Discharges are in cubic feet per second and are reported at the end of the hour.